Time;durP1;ratioP1;P1;durP2;ratioP2;P2;SDS_P1;SDS_P2;PMS_P1;PMS_P2;Temp;Humidity;BMP_temperature;BMP_pressure;BME280_temperature;BME280_humidity;BME280_pressure;Samples;Min_cycle;Max_cycle;Signal;HPM_P1;HPM_P2
2023/06/21 00:02:04;;;;;;;5.93;5.38;;;25.70;58.10;;;;;;5054027;28;20222;-81
2023/06/21 00:08:51;;;;;;;5.80;5.30;;;25.60;58.00;;;;;;5055963;28;20621;-80
2023/06/21 00:11:18;;;;;;;6.38;5.78;;;25.60;58.00;;;;;;5055445;28;20191;-80
2023/06/21 00:13:45;;;;;;;5.90;5.40;;;25.60;58.00;;;;;;5054510;28;20233;-80
2023/06/21 00:16:14;;;;;;;5.47;4.97;;;25.60;58.00;;;;;;5054146;28;20261;-80
2023/06/21 00:18:41;;;;;;;5.82;5.32;;;25.60;57.90;;;;;;5054640;28;20211;-80
2023/06/21 00:21:08;;;;;;;5.63;5.13;;;25.60;58.10;;;;;;5057733;28;20203;-80
2023/06/21 00:23:35;;;;;;;5.65;5.15;;;25.60;58.00;;;;;;5057560;28;20704;-81
2023/06/21 00:26:04;;;;;;;5.80;5.25;;;25.60;58.00;;;;;;5059945;28;20564;-81
2023/06/21 00:28:31;;;;;;;5.38;4.90;;;25.60;58.00;;;;;;5060374;28;20274;-81
2023/06/21 00:30:58;;;;;;;5.57;5.07;;;25.60;57.90;;;;;;5043790;28;20202;-82
2023/06/21 00:33:25;;;;;;;5.85;5.30;;;25.50;58.00;;;;;;5057851;28;20206;-81
2023/06/21 00:35:53;;;;;;;6.30;5.53;;;25.50;57.80;;;;;;5058057;28;20294;-82
2023/06/21 00:38:20;;;;;;;6.03;5.53;;;25.50;57.80;;;;;;5041670;28;20677;-81
2023/06/21 00:40:49;;;;;;;5.70;5.20;;;25.50;57.90;;;;;;5058587;28;20195;-81
2023/06/21 00:43:18;;;;;;;5.80;5.20;;;25.50;57.90;;;;;;5059231;28;20245;-81
2023/06/21 00:45:48;;;;;;;5.43;4.93;;;25.50;57.90;;;;;;5057884;28;20195;-81
2023/06/21 00:48:16;;;;;;;6.18;5.57;;;25.50;57.80;;;;;;5057825;28;20606;-81
2023/06/21 00:50:43;;;;;;;5.85;5.35;;;25.50;57.90;;;;;;5057769;28;20199;-81
2023/06/21 00:53:11;;;;;;;5.47;4.97;;;25.50;58.00;;;;;;5057351;28;20640;-81
2023/06/21 00:55:40;;;;;;;6.25;5.65;;;25.50;58.00;;;;;;5057712;28;20214;-80
2023/06/21 00:58:08;;;;;;;5.85;5.35;;;25.50;58.00;;;;;;5056988;28;20191;-80
2023/06/21 01:00:37;;;;;;;5.90;5.40;;;25.40;58.00;;;;;;5055996;28;20665;-80
2023/06/21 01:03:04;;;;;;;5.80;5.40;;;25.40;57.90;;;;;;5056881;28;20561;-80
2023/06/21 01:05:34;;;;;;;5.60;5.10;;;25.40;57.90;;;;;;5056716;28;20241;-80
2023/06/21 01:08:11;;;;;;;5.78;5.22;;;25.40;57.90;;;;;;5058175;28;20222;-80
2023/06/21 01:10:50;;;;;;;5.78;5.25;;;25.40;57.90;;;;;;5073900;28;20198;-80
2023/06/21 01:13:26;;;;;;;5.85;5.35;;;25.40;57.90;;;;;;5077051;28;20255;-81
2023/06/21 01:15:58;;;;;;;5.68;5.18;;;25.40;58.00;;;;;;5075810;28;20268;-82
2023/06/21 01:18:26;;;;;;;5.43;4.95;;;25.40;57.90;;;;;;5063274;28;20211;-81
2023/06/21 01:20:54;;;;;;;6.07;5.57;;;25.40;58.00;;;;;;5061989;28;20202;-80
2023/06/21 01:23:38;;;;;;;5.75;5.25;;;25.40;58.00;;;;;;5045519;28;20202;-80
2023/06/21 01:26:11;;;;;;;5.95;5.45;;;25.40;58.00;;;;;;5061458;28;20286;-82
2023/06/21 01:28:48;;;;;;;5.47;5.05;;;25.40;58.00;;;;;;5061280;28;20318;-82
2023/06/21 01:31:17;;;;;;;6.15;5.60;;;25.30;57.90;;;;;;5060425;28;20199;-81
2023/06/21 01:33:44;;;;;;;6.13;5.55;;;25.40;57.90;;;;;;5060661;28;20229;-80
2023/06/21 01:36:12;;;;;;;5.55;5.05;;;25.30;57.90;;;;;;5060604;28;20552;-81
2023/06/21 01:38:38;;;;;;;5.47;5.07;;;25.30;58.00;;;;;;5059404;28;20211;-80
2023/06/21 01:41:10;;;;;;;5.85;5.35;;;25.30;57.90;;;;;;5056690;28;20203;-80
2023/06/21 01:43:38;;;;;;;5.85;5.25;;;25.30;57.90;;;;;;5055788;28;20603;-80
2023/06/21 01:46:06;;;;;;;6.07;5.57;;;25.30;57.90;;;;;;5056426;28;20222;-80
2023/06/21 01:48:34;;;;;;;5.70;5.20;;;25.30;58.00;;;;;;5055688;28;20740;-82
2023/06/21 01:51:02;;;;;;;5.93;5.30;;;25.30;57.90;;;;;;5038975;28;20195;-82
2023/06/21 01:53:35;;;;;;;5.90;5.40;;;25.30;57.90;;;;;;5055081;28;20203;-82
2023/06/21 01:56:04;;;;;;;5.68;5.18;;;25.30;58.00;;;;;;5055141;28;20672;-81
2023/06/21 01:58:31;;;;;;;5.22;4.80;;;25.30;57.90;;;;;;5055174;28;20760;-81
2023/06/21 02:00:58;;;;;;;5.72;5.22;;;25.30;57.90;;;;;;5055016;28;20196;-81
2023/06/21 02:03:25;;;;;;;5.82;5.32;;;25.20;58.50;;;;;;5038395;28;20195;-81
2023/06/21 02:05:54;;;;;;;5.85;5.30;;;25.30;57.90;;;;;;5054717;28;20195;-81
2023/06/21 02:08:23;;;;;;;5.65;5.15;;;25.20;57.90;;;;;;5054867;28;20599;-81
2023/06/21 02:10:50;;;;;;;5.80;5.30;;;25.20;57.80;;;;;;5055049;28;20199;-81
2023/06/21 02:13:17;;;;;;;6.35;5.75;;;25.20;57.90;;;;;;5055099;28;20206;-82
2023/06/21 02:15:47;;;;;;;5.63;5.13;;;25.20;57.90;;;;;;5054708;28;20195;-82
2023/06/21 02:18:15;;;;;;;6.10;5.60;;;25.20;57.90;;;;;;5056113;28;20235;-82
2023/06/21 02:20:41;;;;;;;5.80;5.30;;;25.20;57.90;;;;;;5055171;28;20654;-81
2023/06/21 02:23:10;;;;;;;5.63;5.13;;;25.20;57.90;;;;;;5064627;28;20195;-80
2023/06/21 02:25:37;;;;;;;5.88;5.38;;;25.20;57.90;;;;;;5063571;28;20349;-80
2023/06/21 02:28:05;;;;;;;5.93;5.43;;;25.10;57.80;;;;;;5067031;28;20260;-80
2023/06/21 02:30:33;;;;;;;5.85;5.35;;;25.20;57.90;;;;;;5057032;28;20203;-80
2023/06/21 02:33:00;;;;;;;5.60;5.20;;;25.20;57.90;;;;;;5057556;28;20210;-81
2023/06/21 02:35:27;;;;;;;5.45;5.05;;;25.10;57.80;;;;;;5060427;28;20206;-79
2023/06/21 02:37:55;;;;;;;6.30;5.80;;;25.10;57.80;;;;;;5059783;28;20191;-80
2023/06/21 02:40:23;;;;;;;6.13;5.63;;;25.10;57.90;;;;;;5060286;28;20688;-80
2023/06/21 02:42:50;;;;;;;5.65;5.25;;;25.10;57.80;;;;;;5059653;28;20265;-79
2023/06/21 02:45:18;;;;;;;5.63;5.07;;;25.10;57.80;;;;;;5059352;28;20266;-81
2023/06/21 02:47:45;;;;;;;5.50;5.03;;;25.10;57.80;;;;;;5058834;28;20241;-80
2023/06/21 02:50:15;;;;;;;5.82;5.32;;;25.10;57.80;;;;;;5058825;28;20219;-79
2023/06/21 02:52:42;;;;;;;5.65;5.22;;;25.10;57.80;;;;;;5058372;28;20199;-80
2023/06/21 02:55:10;;;;;;;5.40;5.00;;;25.10;57.80;;;;;;5057975;28;20195;-79
2023/06/21 02:57:38;;;;;;;5.90;5.40;;;25.10;57.70;;;;;;5056584;28;20532;-80
2023/06/21 03:00:17;;;;;;;5.47;4.97;;;25.10;57.70;;;;;;5054648;28;20211;-79
2023/06/21 03:02:44;;;;;;;5.45;5.05;;;25.10;57.80;;;;;;5054622;28;20289;-79
2023/06/21 03:05:12;;;;;;;5.57;5.18;;;25.10;57.60;;;;;;5055508;28;20191;-79
2023/06/21 03:07:43;;;;;;;6.35;5.80;;;25.10;57.60;;;;;;5054439;28;20687;-79
2023/06/21 03:10:12;;;;;;;6.18;5.57;;;25.00;57.60;;;;;;5055059;28;20276;-79
2023/06/21 03:12:41;;;;;;;5.93;5.43;;;25.10;57.60;;;;;;5055491;28;20195;-79
2023/06/21 03:15:10;;;;;;;6.47;5.97;;;25.10;57.70;;;;;;5055482;28;20607;-79
2023/06/21 03:17:38;;;;;;;6.25;5.75;;;25.10;57.70;;;;;;5055476;28;20206;-79
2023/06/21 03:20:12;;;;;;;5.85;5.25;;;25.10;57.60;;;;;;5055156;28;20258;-79
2023/06/21 03:22:39;;;;;;;5.93;5.43;;;25.10;57.50;;;;;;5055862;28;20242;-80
2023/06/21 03:25:07;;;;;;;6.28;5.72;;;25.20;57.40;;;;;;5055237;28;20596;-80
2023/06/21 03:27:35;;;;;;;6.55;5.95;;;25.20;57.30;;;;;;5055056;28;20256;-80
2023/06/21 03:30:05;;;;;;;6.15;5.63;;;25.30;57.20;;;;;;5054951;28;20557;-80
2023/06/21 03:32:34;;;;;;;6.43;5.85;;;25.30;57.00;;;;;;5055043;28;20210;-80
2023/06/21 03:35:03;;;;;;;6.18;5.60;;;25.40;56.90;;;;;;5055101;28;20195;-80
2023/06/21 03:37:30;;;;;;;6.28;5.68;;;25.40;56.70;;;;;;5054917;28;20256;-80
2023/06/21 03:39:57;;;;;;;5.47;5.00;;;25.50;56.70;;;;;;5054696;28;20207;-80
2023/06/21 03:42:24;;;;;;;5.88;5.32;;;25.60;56.40;;;;;;5055168;28;20239;-80
2023/06/21 03:44:51;;;;;;;6.15;5.60;;;25.60;56.40;;;;;;5038325;28;20199;-80
2023/06/21 03:47:20;;;;;;;6.10;5.60;;;25.60;56.40;;;;;;5055022;28;20198;-80
2023/06/21 03:49:47;;;;;;;6.18;5.57;;;25.60;56.20;;;;;;5037554;28;20281;-80
2023/06/21 03:52:17;;;;;;;6.07;5.47;;;25.60;56.10;;;;;;5039477;28;20195;-80
2023/06/21 03:54:45;;;;;;;6.13;5.63;;;25.60;56.00;;;;;;5057041;28;20282;-82
2023/06/21 03:57:12;;;;;;;6.97;6.00;;;25.70;56.10;;;;;;5057982;28;20210;-81
2023/06/21 03:59:40;;;;;;;6.20;5.60;;;25.70;56.00;;;;;;5058801;28;20203;-81
2023/06/21 04:02:07;;;;;;;6.03;5.43;;;25.70;56.00;;;;;;5041489;28;20244;-81
2023/06/21 04:04:38;;;;;;;6.13;5.53;;;25.70;55.80;;;;;;5058383;28;20214;-80
2023/06/21 04:07:07;;;;;;;6.18;5.57;;;25.80;55.80;;;;;;5058202;28;20573;-80
2023/06/21 04:09:34;;;;;;;5.82;5.32;;;25.80;55.70;;;;;;5057742;28;20231;-80
2023/06/21 04:12:04;;;;;;;5.80;5.30;;;25.80;55.70;;;;;;5057481;28;20290;-80
2023/06/21 04:14:31;;;;;;;6.00;5.43;;;25.70;55.70;;;;;;5057528;28;20218;-80
2023/06/21 04:17:00;;;;;;;5.97;5.47;;;25.80;55.70;;;;;;5058097;28;20608;-80
2023/06/21 04:19:27;;;;;;;5.90;5.40;;;25.80;55.70;;;;;;5057227;28;20753;-81
2023/06/21 04:21:56;;;;;;;6.13;5.63;;;25.80;55.70;;;;;;5057662;28;20298;-80
2023/06/21 04:24:23;;;;;;;6.20;5.60;;;25.80;55.70;;;;;;5056925;28;20201;-80
2023/06/21 04:26:50;;;;;;;6.68;6.07;;;25.80;55.60;;;;;;5057589;28;20203;-80
2023/06/21 04:29:20;;;;;;;5.70;5.20;;;25.80;55.50;;;;;;5057164;28;20569;-82
2023/06/21 04:31:51;;;;;;;5.80;5.30;;;25.80;55.50;;;;;;5057203;28;20199;-83
2023/06/21 04:34:19;;;;;;;6.20;5.70;;;25.80;55.50;;;;;;5066026;28;20201;-81
2023/06/21 04:36:47;;;;;;;5.70;5.20;;;25.80;55.50;;;;;;5068677;28;20206;-80
2023/06/21 04:39:16;;;;;;;6.20;5.60;;;25.80;55.50;;;;;;5065046;28;20211;-80
2023/06/21 04:41:46;;;;;;;6.53;5.93;;;25.80;55.50;;;;;;5044975;28;20260;-80
2023/06/21 04:44:13;;;;;;;6.07;5.47;;;25.90;55.50;;;;;;5057083;23;20257;-79
2023/06/21 04:46:40;;;;;;;5.82;5.32;;;25.80;55.40;;;;;;5056945;28;20191;-79
2023/06/21 04:49:08;;;;;;;5.70;5.10;;;25.90;55.40;;;;;;5057559;28;20693;-79
2023/06/21 04:51:34;;;;;;;6.22;5.63;;;25.90;55.40;;;;;;5058315;28;20198;-79
2023/06/21 04:54:02;;;;;;;5.82;5.32;;;25.90;55.40;;;;;;5055566;28;20248;-79
2023/06/21 04:56:30;;;;;;;5.93;5.43;;;25.90;55.30;;;;;;5055985;28;20282;-79
2023/06/21 04:58:57;;;;;;;5.85;5.22;;;25.90;55.40;;;;;;5040117;28;20211;-79
2023/06/21 05:01:25;;;;;;;6.32;5.72;;;25.90;55.30;;;;;;5059124;28;20727;-79
2023/06/21 05:03:52;;;;;;;5.93;5.43;;;25.90;55.20;;;;;;5061400;28;20201;-79
2023/06/21 05:06:22;;;;;;;5.38;4.88;;;26.00;55.30;;;;;;5059465;28;20218;-80
2023/06/21 05:08:48;;;;;;;6.25;5.65;;;26.00;55.10;;;;;;5057780;28;20223;-79
2023/06/21 05:11:15;;;;;;;5.75;5.25;;;26.00;54.90;;;;;;5055904;28;20199;-79
2023/06/21 05:13:44;;;;;;;5.50;5.10;;;26.10;54.80;;;;;;5055468;28;20657;-79
2023/06/21 05:16:11;;;;;;;5.70;5.20;;;26.10;54.90;;;;;;5055414;28;20194;-79
2023/06/21 05:18:38;;;;;;;5.93;5.43;;;26.10;54.80;;;;;;5055252;28;20223;-79
2023/06/21 05:21:06;;;;;;;6.03;5.53;;;26.10;54.90;;;;;;5055034;28;20229;-79
2023/06/21 05:23:35;;;;;;;5.78;5.28;;;26.10;54.90;;;;;;5055706;28;20293;-79
2023/06/21 05:26:02;;;;;;;5.55;5.15;;;26.10;54.80;;;;;;5057519;28;20630;-79
2023/06/21 05:28:30;;;;;;;6.03;5.53;;;26.10;54.90;;;;;;5055136;28;20288;-79
2023/06/21 05:30:58;;;;;;;5.80;5.30;;;26.10;54.80;;;;;;5055272;28;20223;-79
2023/06/21 05:33:25;;;;;;;5.65;5.15;;;26.10;54.90;;;;;;5055260;28;20233;-78
2023/06/21 05:35:53;;;;;;;5.82;5.32;;;26.10;54.80;;;;;;5055373;28;20226;-79
2023/06/21 05:38:20;;;;;;;5.78;5.28;;;26.10;54.80;;;;;;5055544;28;20223;-78
2023/06/21 05:40:47;;;;;;;5.55;5.15;;;26.10;54.80;;;;;;5056729;28;20253;-80
2023/06/21 05:43:14;;;;;;;5.80;5.28;;;26.10;54.90;;;;;;5054981;28;20199;-79
2023/06/21 05:45:41;;;;;;;5.78;5.28;;;26.10;54.90;;;;;;5055840;28;20287;-79
2023/06/21 05:48:10;;;;;;;6.18;5.57;;;26.10;54.90;;;;;;5055102;28;20198;-78
2023/06/21 05:50:37;;;;;;;5.60;5.15;;;26.10;54.90;;;;;;5054952;28;20301;-79
2023/06/21 05:53:04;;;;;;;5.15;4.75;;;26.10;54.90;;;;;;5054983;28;20194;-80
2023/06/21 05:55:31;;;;;;;5.55;5.13;;;26.10;54.80;;;;;;5039110;28;20203;-80
2023/06/21 05:57:59;;;;;;;5.70;5.22;;;26.20;54.80;;;;;;5061932;28;20206;-79
2023/06/21 06:00:26;;;;;;;5.70;5.20;;;26.20;54.80;;;;;;5055914;28;20248;-79
2023/06/21 06:02:53;;;;;;;6.18;5.57;;;26.20;54.90;;;;;;5055354;28;20249;-79
2023/06/21 06:05:21;;;;;;;7.05;5.25;;;26.20;55.30;;;;;;5054565;28;20549;-79
2023/06/21 06:07:48;;;;;;;6.10;5.50;;;26.20;55.60;;;;;;5057033;28;20198;-79
2023/06/21 06:10:18;;;;;;;6.25;5.63;;;26.20;55.60;;;;;;5054604;28;20280;-79
2023/06/21 06:12:45;;;;;;;6.15;5.63;;;26.20;55.80;;;;;;5054277;28;20193;-79
2023/06/21 06:15:13;;;;;;;6.32;5.72;;;26.20;55.90;;;;;;5038191;28;20218;-78
2023/06/21 06:17:40;;;;;;;7.57;6.07;;;26.30;56.20;;;;;;5036868;28;20202;-79
2023/06/21 06:20:08;;;;;;;7.40;5.60;;;26.30;56.60;;;;;;5054585;28;20218;-79
2023/06/21 06:22:36;;;;;;;6.72;5.70;;;26.30;56.10;;;;;;5054051;28;20201;-79
2023/06/21 06:25:07;;;;;;;6.25;5.60;;;26.40;56.20;;;;;;5054516;28;20195;-79
2023/06/21 06:27:34;;;;;;;6.57;5.80;;;26.30;56.20;;;;;;5055178;28;20195;-81
2023/06/21 06:30:02;;;;;;;6.70;5.60;;;26.40;56.30;;;;;;5054479;28;20218;-81
2023/06/21 06:32:29;;;;;;;6.85;6.18;;;26.40;56.90;;;;;;5054735;28;20253;-81
2023/06/21 06:34:56;;;;;;;9.02;6.25;;;26.40;56.90;;;;;;5054446;28;20267;-81
2023/06/21 06:37:24;;;;;;;8.57;6.78;;;26.40;57.60;;;;;;5054731;28;20328;-80
2023/06/21 06:39:53;;;;;;;8.10;7.05;;;26.40;59.40;;;;;;5054729;28;20210;-81
2023/06/21 06:42:20;;;;;;;8.88;6.95;;;26.40;59.30;;;;;;5055050;28;20186;-81
2023/06/21 06:44:47;;;;;;;9.20;7.40;;;26.50;59.50;;;;;;5055062;28;20306;-80
2023/06/21 06:47:14;;;;;;;9.35;7.10;;;26.60;58.60;;;;;;5054547;28;20653;-80
2023/06/21 06:49:42;;;;;;;13.77;7.63;;;26.60;58.30;;;;;;5056549;28;20223;-80
2023/06/21 06:52:10;;;;;;;9.95;7.53;;;26.60;58.10;;;;;;5055778;28;20588;-81
2023/06/21 06:54:37;;;;;;;10.50;6.93;;;26.70;58.00;;;;;;5054702;28;20199;-80
2023/06/21 06:57:07;;;;;;;10.13;7.10;;;26.70;58.60;;;;;;5053846;28;20201;-80
2023/06/21 06:59:34;;;;;;;7.15;6.45;;;26.70;57.70;;;;;;5054125;28;20207;-80
2023/06/21 07:02:01;;;;;;;9.38;6.38;;;26.70;57.40;;;;;;5054495;28;20202;-80
2023/06/21 07:04:29;;;;;;;7.82;6.70;;;26.60;58.40;;;;;;5054415;28;20277;-80
2023/06/21 07:06:57;;;;;;;7.13;6.43;;;26.70;58.40;;;;;;5054800;28;20191;-80
2023/06/21 07:09:25;;;;;;;10.35;6.93;;;26.70;58.50;;;;;;5054428;28;20268;-80
2023/06/21 07:11:56;;;;;;;11.90;7.38;;;26.70;58.10;;;;;;5054403;28;20684;-80
2023/06/21 07:14:25;;;;;;;9.20;6.88;;;26.80;56.60;;;;;;5053754;28;20230;-80
2023/06/21 07:16:52;;;;;;;8.25;7.03;;;26.80;57.10;;;;;;5054044;28;20198;-80
2023/06/21 07:19:20;;;;;;;9.98;6.60;;;26.80;57.20;;;;;;5054563;28;20232;-80
2023/06/21 07:21:47;;;;;;;9.35;7.05;;;26.90;57.50;;;;;;5055400;28;20198;-80
2023/06/21 07:24:15;;;;;;;7.22;6.47;;;27.00;57.00;;;;;;5059996;28;20233;-80
2023/06/21 07:26:42;;;;;;;7.07;6.38;;;27.10;57.40;;;;;;5063889;28;20199;-80
2023/06/21 07:29:09;;;;;;;7.78;6.15;;;27.20;57.20;;;;;;5046005;28;20236;-80
2023/06/21 07:31:37;;;;;;;8.00;6.68;;;27.30;57.10;;;;;;5062137;28;20209;-80
2023/06/21 07:34:07;;;;;;;6.40;5.63;;;27.30;56.60;;;;;;5072501;28;20233;-80
2023/06/21 07:36:34;;;;;;;6.85;6.00;;;27.40;56.80;;;;;;5075524;28;20186;-80
2023/06/21 07:39:00;;;;;;;7.60;5.70;;;27.40;54.90;;;;;;5054727;28;20222;-80
2023/06/21 07:41:28;;;;;;;7.82;5.70;;;27.50;54.50;;;;;;5037738;28;20575;-80
2023/06/21 07:43:55;;;;;;;6.93;5.30;;;27.40;55.20;;;;;;5038243;28;20614;-80
2023/06/21 07:46:22;;;;;;;5.20;4.60;;;27.40;54.70;;;;;;5056240;28;20692;-80
2023/06/21 07:48:51;;;;;;;6.25;5.28;;;;;;;;;;5077507;28;20195;-81
2023/06/21 07:51:18;;;;;;;7.15;5.05;;;27.30;53.70;;;;;;5072796;28;20641;-80
2023/06/21 07:53:45;;;;;;;5.88;5.07;;;27.20;54.00;;;;;;5059624;28;20202;-80
2023/06/21 07:56:14;;;;;;;6.75;5.63;;;27.20;54.30;;;;;;5060191;28;20289;-80
2023/06/21 07:58:42;;;;;;;5.50;5.00;;;27.20;55.10;;;;;;5059547;28;20214;-80
2023/06/21 08:01:11;;;;;;;6.07;5.47;;;27.20;55.00;;;;;;5067088;28;20195;-80
2023/06/21 08:03:38;;;;;;;7.10;5.45;;;27.20;54.90;;;;;;5066272;28;20209;-80
2023/06/21 08:06:07;;;;;;;7.38;5.60;;;27.20;55.50;;;;;;5058928;28;20209;-80
2023/06/21 08:08:34;;;;;;;6.22;5.40;;;27.20;55.20;;;;;;5044496;28;20653;-80
2023/06/21 08:11:01;;;;;;;6.15;5.55;;;27.20;54.90;;;;;;5059904;28;20264;-80
2023/06/21 08:13:29;;;;;;;6.38;5.55;;;27.20;54.50;;;;;;5061901;28;20195;-80
2023/06/21 08:15:57;;;;;;;6.22;5.47;;;27.20;54.20;;;;;;5065872;28;20170;-80
2023/06/21 08:18:24;;;;;;;5.82;5.18;;;27.20;54.70;;;;;;5060626;28;20220;-80
2023/06/21 08:20:54;;;;;;;6.78;5.57;;;27.30;55.60;;;;;;5061420;28;20174;-80
2023/06/21 08:23:24;;;;;;;6.88;5.60;;;27.30;55.20;;;;;;5077162;28;20246;-80
2023/06/21 08:25:52;;;;;;;5.90;5.30;;;27.30;55.30;;;;;;5077231;28;20179;-80
2023/06/21 08:28:19;;;;;;;6.03;5.43;;;27.20;55.20;;;;;;5077260;28;20595;-80
2023/06/21 08:30:47;;;;;;;6.65;5.93;;;27.20;55.50;;;;;;5077246;28;20233;-80
2023/06/21 08:33:14;;;;;;;6.97;5.60;;;27.20;55.50;;;;;;5077146;28;20179;-80
2023/06/21 08:35:42;;;;;;;6.78;5.95;;;27.10;55.50;;;;;;5076872;28;20183;-80
2023/06/21 08:38:09;;;;;;;6.43;5.72;;;27.20;55.70;;;;;;5077005;28;20191;-79
2023/06/21 08:40:38;;;;;;;6.22;5.63;;;27.10;55.40;;;;;;5079231;28;20191;-79
2023/06/21 08:43:05;;;;;;;6.60;5.90;;;27.10;55.50;;;;;;5064060;28;20195;-79
2023/06/21 08:45:32;;;;;;;7.05;5.53;;;27.10;55.50;;;;;;5071173;28;20179;-79
2023/06/21 08:48:01;;;;;;;6.22;5.32;;;27.10;55.50;;;;;;5059873;28;20195;-78
2023/06/21 08:50:30;;;;;;;6.43;5.47;;;27.10;55.50;;;;;;5056217;28;20211;-77
2023/06/21 08:53:21;;;;;;;5.93;5.30;;;27.10;55.50;;;;;;5058278;28;20186;-78
2023/06/21 08:55:49;;;;;;;6.13;5.53;;;27.10;55.40;;;;;;5056088;28;20205;-78
2023/06/21 08:58:18;;;;;;;6.03;5.43;;;27.10;55.30;;;;;;5039578;28;20272;-78
2023/06/21 09:01:06;;;;;;;6.35;5.78;;;27.10;55.20;;;;;;5057228;28;20543;-78
2023/06/21 09:03:37;;;;;;;7.70;5.65;;;27.10;55.20;;;;;;5055332;28;20198;-78
2023/06/21 09:06:05;;;;;;;6.97;5.10;;;27.00;55.20;;;;;;5055103;28;20633;-78
2023/06/21 09:08:33;;;;;;;6.13;5.60;;;27.00;55.00;;;;;;5054970;28;20222;-78
2023/06/21 09:11:01;;;;;;;6.20;5.40;;;27.10;55.10;;;;;;5056518;28;20207;-78
2023/06/21 09:13:28;;;;;;;5.82;5.32;;;27.10;55.00;;;;;;5055191;28;20194;-78
2023/06/21 09:15:55;;;;;;;5.93;5.40;;;27.00;55.10;;;;;;5038340;28;20196;-78
2023/06/21 09:18:23;;;;;;;6.05;5.38;;;27.00;55.20;;;;;;5055157;28;20223;-78
2023/06/21 09:20:51;;;;;;;6.13;5.28;;;27.00;55.20;;;;;;5056110;28;20187;-78
2023/06/21 09:23:18;;;;;;;6.30;5.55;;;27.00;55.20;;;;;;5054805;28;20187;-78
2023/06/21 09:25:48;;;;;;;6.22;5.35;;;27.00;55.20;;;;;;5038439;28;20213;-78
2023/06/21 09:28:16;;;;;;;5.93;5.20;;;27.00;55.20;;;;;;5038993;28;20634;-78
2023/06/21 09:30:44;;;;;;;5.70;5.20;;;26.90;55.10;;;;;;5054931;28;20207;-78
2023/06/21 09:33:11;;;;;;;5.68;5.22;;;27.00;55.10;;;;;;5056464;28;20195;-78
2023/06/21 09:35:38;;;;;;;5.75;5.15;;;27.00;55.30;;;;;;5055517;28;20586;-78
2023/06/21 09:38:21;;;;;;;5.93;5.40;;;26.90;55.30;;;;;;5054924;28;20224;-78
2023/06/21 09:40:49;;;;;;;5.45;4.85;;;26.90;55.30;;;;;;5054548;28;20201;-78
2023/06/21 09:43:18;;;;;;;6.20;5.25;;;27.00;55.40;;;;;;5054864;28;20194;-78
2023/06/21 09:45:58;;;;;;;5.97;5.20;;;27.00;55.40;;;;;;5054301;28;20273;-78
2023/06/21 09:48:25;;;;;;;6.00;5.43;;;26.90;55.30;;;;;;5054740;28;20219;-78
2023/06/21 09:50:54;;;;;;;6.35;5.18;;;26.90;55.30;;;;;;5053884;28;20250;-78
2023/06/21 09:53:23;;;;;;;6.07;5.38;;;26.90;55.30;;;;;;5054397;28;20294;-78
2023/06/21 09:55:50;;;;;;;6.05;5.15;;;26.90;55.40;;;;;;5054856;28;20201;-78
2023/06/21 09:58:19;;;;;;;6.30;5.35;;;26.80;55.50;;;;;;5054440;28;20298;-78
2023/06/21 10:00:46;;;;;;;5.90;5.30;;;26.80;55.60;;;;;;5054909;28;20191;-78
2023/06/21 10:03:13;;;;;;;5.85;5.32;;;26.90;55.60;;;;;;5054575;28;20207;-78
2023/06/21 10:05:54;;;;;;;5.90;5.30;;;26.80;55.70;;;;;;5054263;28;20210;-78
2023/06/21 10:08:25;;;;;;;6.10;5.50;;;26.80;55.70;;;;;;5038200;28;20215;-78
2023/06/21 10:10:52;;;;;;;5.45;4.95;;;26.70;55.80;;;;;;5054755;28;20214;-78
2023/06/21 10:13:26;;;;;;;5.80;5.10;;;26.70;55.90;;;;;;5054253;28;20199;-79
2023/06/21 10:15:54;;;;;;;6.65;5.43;;;26.70;55.80;;;;;;5054021;28;20195;-79
2023/06/21 10:18:21;;;;;;;6.63;5.30;;;26.60;55.90;;;;;;5037769;28;20219;-79
2023/06/21 10:20:49;;;;;;;6.85;5.15;;;26.60;56.10;;;;;;5053585;28;20195;-79
2023/06/21 10:23:16;;;;;;;5.90;5.30;;;26.60;56.20;;;;;;5053881;28;20601;-79
2023/06/21 10:25:44;;;;;;;6.00;5.40;;;26.60;56.30;;;;;;5053783;28;20237;-79
2023/06/21 10:28:11;;;;;;;5.93;5.30;;;26.50;56.40;;;;;;5053505;28;20632;-79
2023/06/21 10:30:39;;;;;;;6.40;5.28;;;26.60;56.60;;;;;;5037083;28;20214;-79
2023/06/21 10:33:06;;;;;;;5.88;5.28;;;26.60;56.60;;;;;;5053684;28;20205;-79
2023/06/21 10:35:35;;;;;;;6.20;5.22;;;26.60;56.70;;;;;;5053698;28;20203;-79
2023/06/21 10:38:05;;;;;;;5.95;5.40;;;26.60;56.60;;;;;;5054050;28;20198;-79
2023/06/21 10:40:32;;;;;;;6.00;5.45;;;26.50;56.60;;;;;;5054011;28;20195;-79
2023/06/21 10:45:42;;;;;;;6.30;5.45;;;26.60;56.50;;;;;;5070988;22;20228;-80
2023/06/21 10:48:09;;;;;;;7.78;5.40;;;26.60;56.60;;;;;;5053854;28;20199;-80
2023/06/21 10:50:37;;;;;;;5.85;5.25;;;26.60;56.40;;;;;;5038066;28;20218;-80
2023/06/21 10:53:04;;;;;;;6.30;5.70;;;26.60;56.30;;;;;;5056340;28;20724;-80
2023/06/21 10:55:31;;;;;;;6.60;5.90;;;26.60;56.30;;;;;;5066714;28;20199;-79
2023/06/21 10:57:58;;;;;;;6.20;5.57;;;26.60;56.30;;;;;;5060029;28;20521;-79
2023/06/21 11:00:25;;;;;;;6.20;5.05;;;26.60;56.20;;;;;;5059405;28;20199;-79
2023/06/21 11:02:53;;;;;;;6.00;5.40;;;26.60;56.10;;;;;;5058393;28;20199;-79
2023/06/21 11:05:22;;;;;;;6.03;5.43;;;26.60;56.10;;;;;;5057792;28;20650;-79
2023/06/21 11:07:50;;;;;;;5.82;5.32;;;26.70;56.10;;;;;;5058560;28;20618;-79
2023/06/21 11:10:17;;;;;;;6.03;5.43;;;26.70;55.90;;;;;;5057668;28;20241;-79
2023/06/21 11:12:44;;;;;;;6.10;5.50;;;26.70;55.80;;;;;;5057551;28;20199;-79
2023/06/21 11:15:20;;;;;;;6.18;5.22;;;26.70;55.70;;;;;;5058414;28;20199;-79
2023/06/21 11:17:57;;;;;;;5.60;5.10;;;26.80;55.70;;;;;;5057648;28;20198;-79
2023/06/21 11:20:25;;;;;;;6.93;5.97;;;26.80;55.60;;;;;;5057441;28;20198;-79
2023/06/21 11:22:56;;;;;;;6.10;5.50;;;26.90;55.50;;;;;;5055364;28;20193;-79
2023/06/21 11:25:23;;;;;;;6.20;5.60;;;26.90;55.50;;;;;;5054081;28;20218;-79
2023/06/21 11:28:22;;;;;;;6.30;5.55;;;27.00;55.40;;;;;;5053118;28;20744;-79
2023/06/21 11:31:05;;;;;;;6.15;5.45;;;27.00;55.40;;;;;;5053102;28;20215;-79
2023/06/21 11:33:48;;;;;;;6.07;5.47;;;27.10;55.40;;;;;;5052990;28;20286;-79
2023/06/21 11:36:16;;;;;;;6.35;5.13;;;27.20;55.40;;;;;;5054474;28;20179;-79
2023/06/21 11:38:49;;;;;;;6.20;5.55;;;27.20;55.20;;;;;;5052580;28;20269;-79
2023/06/21 11:41:34;;;;;;;5.47;5.03;;;27.20;55.00;;;;;;5052750;28;20195;-80
2023/06/21 11:44:01;;;;;;;6.22;5.63;;;27.30;54.90;;;;;;5053194;28;20207;-80
2023/06/21 11:46:28;;;;;;;6.13;5.50;;;27.30;54.70;;;;;;5054143;28;20293;-80
2023/06/21 11:49:00;;;;;;;6.20;5.60;;;27.30;54.60;;;;;;5056592;28;20218;-80
2023/06/21 11:51:28;;;;;;;7.13;5.60;;;27.40;54.40;;;;;;5054513;28;20238;-80
2023/06/21 11:53:56;;;;;;;5.80;5.28;;;27.40;54.20;;;;;;5053529;28;20198;-80
2023/06/21 11:56:23;;;;;;;5.82;5.30;;;27.50;54.30;;;;;;5052569;28;20198;-80
2023/06/21 11:58:50;;;;;;;5.63;5.18;;;27.50;54.20;;;;;;5050827;28;20223;-80
2023/06/21 12:01:17;;;;;;;5.90;5.25;;;27.50;54.20;;;;;;5051019;28;20628;-79
2023/06/21 12:03:46;;;;;;;7.75;5.43;;;27.50;54.50;;;;;;5052300;28;20195;-79
2023/06/21 12:06:14;;;;;;;7.97;6.70;;;27.40;54.50;;;;;;5052294;28;20679;-80
2023/06/21 12:08:41;;;;;;;6.90;6.30;;;27.40;56.10;;;;;;5053017;28;20230;-79
2023/06/21 12:11:09;;;;;;;6.57;5.78;;;27.40;56.70;;;;;;5052158;28;20233;-79
2023/06/21 12:13:36;;;;;;;7.30;6.15;;;27.40;55.70;;;;;;5053476;28;20195;-80
2023/06/21 12:16:04;;;;;;;6.30;5.70;;;27.40;55.70;;;;;;5055708;28;20199;-78
2023/06/21 12:18:32;;;;;;;7.03;5.90;;;27.40;55.60;;;;;;5056976;28;20279;-78
2023/06/21 12:20:59;;;;;;;7.25;6.43;;;27.50;55.70;;;;;;5056873;28;20207;-78
2023/06/21 12:23:29;;;;;;;6.60;5.53;;;27.50;55.70;;;;;;5057109;28;20609;-78
2023/06/21 12:25:58;;;;;;;6.97;6.28;;;27.50;55.70;;;;;;5057040;28;20194;-78
2023/06/21 12:28:25;;;;;;;6.82;6.15;;;27.50;55.80;;;;;;5056266;28;20594;-80
2023/06/21 12:30:54;;;;;;;7.00;6.40;;;27.50;55.90;;;;;;5056240;28;20222;-79
2023/06/21 12:33:23;;;;;;;7.28;6.60;;;27.50;56.00;;;;;;5056173;28;20193;-79
2023/06/21 12:35:50;;;;;;;8.50;6.53;;;27.50;56.10;;;;;;5055996;28;20202;-79
2023/06/21 12:38:18;;;;;;;7.07;6.38;;;27.50;56.10;;;;;;5056494;28;20202;-79
2023/06/21 12:40:57;;;;;;;7.65;6.55;;;27.50;55.80;;;;;;5055901;28;20683;-79
2023/06/21 12:43:35;;;;;;;7.53;6.82;;;27.50;56.00;;;;;;5055626;28;20190;-79
2023/06/21 12:46:03;;;;;;;7.30;6.55;;;27.50;56.30;;;;;;5056495;28;20194;-79
2023/06/21 12:48:30;;;;;;;7.15;6.45;;;27.50;56.20;;;;;;5039323;28;20218;-78
2023/06/21 12:50:57;;;;;;;7.32;6.63;;;27.50;56.00;;;;;;5039268;28;20229;-78
2023/06/21 12:53:25;;;;;;;6.82;6.13;;;27.40;56.00;;;;;;5039612;28;20289;-78
2023/06/21 12:55:52;;;;;;;8.07;6.28;;;27.50;56.00;;;;;;5040232;28;20205;-78
2023/06/21 12:58:20;;;;;;;7.97;6.72;;;27.50;56.00;;;;;;5039925;28;20225;-78
2023/06/21 13:00:48;;;;;;;6.68;6.07;;;27.50;55.70;;;;;;5056040;28;20203;-78
2023/06/21 13:03:15;;;;;;;7.32;6.10;;;27.50;55.70;;;;;;5055691;28;20199;-78